Time;durP1;ratioP1;P1;durP2;ratioP2;P2;SDS_P1;SDS_P2;PMS_P1;PMS_P2;Temp;Humidity;BMP_temperature;BMP_pressure;BME280_temperature;BME280_humidity;BME280_pressure;Samples;Min_cycle;Max_cycle;Signal;HPM_P1;HPM_P2
2021/03/27 00:00:20;;;;;;;16.67;6.80;;;;;;;2.77;63.26;101605.16;4957635;28;20107;-77
2021/03/27 00:02:55;;;;;;;17.20;7.53;;;;;;;2.46;63.46;101548.97;4993046;28;20045;-77
2021/03/27 00:05:28;;;;;;;15.00;7.93;;;;;;;2.38;62.95;101510.97;5034615;28;20104;-77
2021/03/27 00:08:18;;;;;;;15.30;7.70;;;;;;;2.97;62.51;101607.78;5033409;28;20024;-77
2021/03/27 00:10:56;;;;;;;13.83;7.67;;;;;;;2.95;62.50;101598.22;5034662;28;20051;-82
2021/03/27 00:13:28;;;;;;;21.03;12.13;;;;;;;3.10;62.67;101599.50;5034609;28;20018;-81
2021/03/27 00:16:00;;;;;;;21.77;12.57;;;;;;;3.06;62.81;101584.72;5034104;28;20026;-76
2021/03/27 00:18:30;;;;;;;22.57;11.20;;;;;;;2.97;62.45;101577.16;5034258;28;20025;-79
2021/03/27 00:21:09;;;;;;;13.60;8.13;;;;;;;2.86;62.57;101589.00;5033371;28;20033;-79
2021/03/27 00:23:42;;;;;;;44.90;18.73;;;;;;;2.98;62.57;101573.88;5033472;28;20095;-79
2021/03/27 00:26:20;;;;;;;35.43;14.83;;;;;;;3.13;62.26;101588.66;5034408;28;20029;-77
2021/03/27 00:28:56;;;;;;;18.67;10.17;;;;;;;3.20;62.23;101576.59;5034270;28;20589;-83
2021/03/27 00:31:27;;;;;;;16.87;9.70;;;;;;;3.33;61.50;101573.41;5033016;28;20022;-79
2021/03/27 00:34:00;;;;;;;14.60;9.17;;;;;;;3.33;60.77;101575.94;5034212;28;20022;-78
2021/03/27 00:36:35;;;;;;;19.30;9.97;;;;;;;3.38;60.99;101569.56;5033035;28;20476;-78
2021/03/27 00:39:22;;;;;;;16.87;8.47;;;;;;;3.54;60.96;101584.50;5034609;28;20113;-78
2021/03/27 00:42:00;;;;;;;25.77;12.03;;;;;;;3.68;61.07;101589.88;5034063;28;20446;-90
2021/03/27 00:44:33;;;;;;;22.77;10.97;;;;;;;3.68;61.15;101588.19;5034677;28;20022;-88
2021/03/27 00:47:00;;;;;;;20.07;10.00;;;;;;;3.08;60.81;101486.25;5032978;28;20021;-84
2021/03/27 00:49:32;;;;;;;16.80;9.10;;;;;;;3.62;60.70;101574.91;5034270;28;20061;-84
2021/03/27 00:52:13;;;;;;;17.63;9.60;;;;;;;3.67;60.49;101582.97;5033734;28;20063;-87
2021/03/27 00:54:48;;;;;;;15.63;8.70;;;;;;;3.76;60.54;101585.38;5034065;28;20030;-86
2021/03/27 00:57:35;;;;;;;15.97;8.80;;;;;;;3.47;60.28;101553.25;5032636;28;20119;-87
2021/03/27 01:00:01;;;;;;;20.67;10.93;;;;;;;3.18;61.78;101585.75;5033030;28;20061;-91
2021/03/27 01:02:27;;;;;;;29.20;16.10;;;;;;;2.62;63.00;101534.25;5033869;28;20068;-88
2021/03/27 01:04:58;;;;;;;31.80;17.87;;;;;;;2.91;62.89;101584.31;5050365;28;20060;-88
2021/03/27 01:07:25;;;;;;;22.77;12.93;;;;;;;2.90;62.34;101565.56;5052966;28;20071;-94
2021/03/27 01:09:57;;;;;;;17.57;10.00;;;;;;;2.91;61.79;101562.22;5052664;28;20126;-86
2021/03/27 01:12:35;;;;;;;32.03;15.40;;;;;;;3.07;61.82;101579.72;5052106;28;20025;-82
2021/03/27 01:15:11;;;;;;;16.10;9.20;;;;;;;3.15;61.49;101589.69;5052524;28;20402;-89
2021/03/27 01:17:41;;;;;;;16.13;7.90;;;;;;;3.09;61.44;101592.66;5052681;28;20513;-90
2021/03/27 01:20:16;;;;;;;15.67;8.50;;;;;;;2.70;61.90;101594.44;5051780;28;20032;-88
2021/03/27 01:22:44;;;;;;;16.13;8.30;;;;;;;1.95;62.47;101512.31;5052528;28;20434;-86
2021/03/27 01:25:11;;;;;;;16.33;8.07;;;;;;;1.98;63.19;101545.72;5051358;28;20029;-85
2021/03/27 01:27:53;;;;;;;14.60;9.90;;;;;;;2.06;63.52;101569.31;5052817;28;20029;-84
2021/03/27 01:30:29;;;;;;;16.77;9.13;;;;;;;2.17;64.18;101582.97;5052173;28;20033;-80
2021/03/27 01:33:03;;;;;;;13.63;8.43;;;;;;;2.11;63.92;101596.06;5053327;28;20047;-92
2021/03/27 01:35:40;;;;;;;14.87;9.23;;;;;;;1.88;63.86;101550.72;5051842;28;20024;-86
2021/03/27 01:38:25;;;;;;;16.90;9.37;;;;;;;2.09;64.04;101606.13;5031660;28;20029;-83
2021/03/27 01:41:12;;;;;;;17.43;10.40;;;;;;;1.69;64.17;101555.81;5032150;28;20461;-82
2021/03/27 01:43:46;;;;;;;18.23;10.43;;;;;;;1.55;64.64;101552.03;5033912;28;20029;-86
2021/03/27 01:46:38;;;;;;;16.37;10.03;;;;;;;1.89;65.00;101603.44;5031725;28;20045;-85
2021/03/27 01:49:30;;;;;;;17.27;9.97;;;;;;;1.78;64.24;101562.63;5031812;28;20045;-80
2021/03/27 01:52:26;;;;;;;17.30;9.30;;;;;;;2.05;64.65;101600.63;5032922;28;20030;-77
2021/03/27 01:55:17;;;;;;;15.73;9.87;;;;;;;2.06;64.16;101597.31;5033068;28;20557;-81
2021/03/27 01:58:03;;;;;;;15.57;9.73;;;;;;;2.08;64.15;101608.53;4952173;28;20134;-78
2021/03/27 02:00:34;;;;;;;18.73;10.80;;;;;;;2.02;64.10;101585.97;4898034;29;20040;-82
2021/03/27 02:03:16;;;;;;;19.00;10.07;;;;;;;2.08;63.63;101593.25;4915838;29;20043;-77
2021/03/27 02:06:06;;;;;;;18.50;11.10;;;;;;;1.60;63.77;101503.31;4933018;29;20549;-83
2021/03/27 02:08:54;;;;;;;18.60;10.23;;;;;;;2.13;63.49;101593.66;4916977;29;20157;-83
2021/03/27 02:11:38;;;;;;;16.83;9.57;;;;;;;2.25;63.15;101597.28;4932994;29;20032;-81
2021/03/27 02:14:12;;;;;;;19.60;10.77;;;;;;;2.28;63.61;101600.13;4916709;29;20064;-83
2021/03/27 02:16:48;;;;;;;19.53;10.57;;;;;;;1.88;63.60;101543.06;4916814;29;20031;-84
2021/03/27 02:19:36;;;;;;;17.20;10.33;;;;;;;1.85;63.55;101546.25;4916630;29;20032;-84
2021/03/27 02:22:23;;;;;;;15.10;9.73;;;;;;;2.26;63.66;101612.72;4915825;29;20063;-84
2021/03/27 02:25:13;;;;;;;17.23;10.37;;;;;;;2.24;62.45;101610.78;4916319;29;20086;-83
2021/03/27 02:27:50;;;;;;;16.73;10.20;;;;;;;2.12;62.11;101613.16;4917412;29;20035;-83
2021/03/27 02:30:22;;;;;;;15.00;10.30;;;;;;;1.96;62.41;101620.16;4932198;29;20041;-83
2021/03/27 02:33:05;;;;;;;15.67;9.77;;;;;;;1.80;63.45;101617.91;4932419;29;20126;-83
2021/03/27 02:35:49;;;;;;;16.87;10.63;;;;;;;1.87;63.68;101618.59;4925251;29;20035;-81
2021/03/27 02:38:26;;;;;;;16.63;9.40;;;;;;;1.96;63.66;101621.06;4945814;28;20070;-81
2021/03/27 02:41:02;;;;;;;17.73;10.23;;;;;;;1.88;63.50;101609.28;4954341;28;20544;-81
2021/03/27 02:43:36;;;;;;;16.93;9.90;;;;;;;1.73;63.10;101602.06;4954578;28;20118;-82
2021/03/27 02:46:22;;;;;;;14.40;9.43;;;;;;;1.70;63.41;101629.78;4971255;28;20118;-81
2021/03/27 02:49:11;;;;;;;16.00;9.73;;;;;;;1.34;63.92;101572.22;4954622;28;20535;-81
2021/03/27 02:51:50;;;;;;;15.47;9.40;;;;;;;1.28;63.60;101575.09;4970792;28;20401;-81
2021/03/27 02:54:28;;;;;;;15.68;9.82;;;;;;;1.42;64.12;101609.44;4970813;28;20110;-81
2021/03/27 02:57:09;;;;;;;15.33;9.27;;;;;;;1.59;64.05;101620.28;4954489;28;20125;-81
2021/03/27 03:00:03;;;;;;;14.57;9.53;;;;;;;1.66;63.87;101624.25;4970984;28;20065;-82
2021/03/27 03:02:51;;;;;;;16.77;9.23;;;;;;;1.64;64.05;101626.66;4989661;28;20038;-79
2021/03/27 03:05:22;;;;;;;14.27;9.47;;;;;;;1.24;64.78;101562.84;4992665;28;20058;-81
2021/03/27 03:07:47;;;;;;;14.10;9.80;;;;;;;1.56;65.10;101622.56;5050095;28;20025;-81
2021/03/27 03:10:25;;;;;;;19.10;9.13;;;;;;;1.57;65.36;101624.31;5050308;28;20040;-81
2021/03/27 03:13:02;;;;;;;17.30;9.93;;;;;;;1.51;65.06;101634.84;5051423;28;20025;-82
2021/03/27 03:15:50;;;;;;;16.27;9.57;;;;;;;1.60;65.20;101629.69;5049908;28;20486;-81
2021/03/27 03:18:32;;;;;;;16.00;9.23;;;;;;;1.65;64.90;101635.22;5051002;28;20066;-82
2021/03/27 03:21:09;;;;;;;16.20;8.93;;;;;;;1.50;65.04;101622.00;5051217;28;20482;-81
2021/03/27 03:23:56;;;;;;;13.97;9.30;;;;;;;1.52;65.43;101651.00;5049794;28;20388;-81
2021/03/27 03:26:40;;;;;;;15.53;9.23;;;;;;;1.44;65.78;101652.84;5049865;28;20532;-81
2021/03/27 03:29:17;;;;;;;17.23;9.97;;;;;;;1.38;65.92;101652.28;5049864;28;20029;-81
2021/03/27 03:32:05;;;;;;;19.03;10.17;;;;;;;1.06;65.72;101591.66;5050337;28;20125;-81
2021/03/27 03:34:55;;;;;;;14.77;9.90;;;;;;;1.40;65.47;101653.31;5055185;28;20029;-81
2021/03/27 03:37:26;;;;;;;16.43;10.30;;;;;;;1.28;65.74;101653.97;5044209;28;20040;-81
2021/03/27 03:40:24;;;;;;;14.30;9.63;;;;;;;1.34;65.92;101652.75;5034175;28;20029;-81
2021/03/27 03:43:11;;;;;;;14.63;9.33;;;;;;;1.40;65.71;101655.88;4973916;28;20043;-81
2021/03/27 03:45:42;;;;;;;14.87;9.97;;;;;;;1.35;65.74;101650.34;4974111;28;20038;-82
2021/03/27 03:48:36;;;;;;;14.37;9.33;;;;;;;1.28;65.61;101653.97;4974072;28;20632;-81
2021/03/27 03:51:20;;;;;;;14.47;9.03;;;;;;;1.13;65.69;101660.16;4957728;28;20038;-81
2021/03/27 03:54:11;;;;;;;17.47;10.30;;;;;;;0.90;66.20;101640.19;4957341;28;20042;-82
2021/03/27 03:57:02;;;;;;;17.37;9.53;;;;;;;1.03;65.86;101650.75;4973856;28;20031;-81
2021/03/27 03:59:37;;;;;;;14.77;9.63;;;;;;;0.71;66.27;101658.78;4973757;28;20035;-80
2021/03/27 04:02:07;;;;;;;16.17;9.63;;;;;;;0.44;67.83;101660.44;4973715;28;20121;-81
2021/03/27 04:04:44;;;;;;;16.77;10.50;;;;;;;-0.02;68.21;101606.09;4957304;28;20086;-79
2021/03/27 04:07:17;;;;;;;17.20;10.00;;;;;;;0.31;67.65;101660.00;4973653;28;20604;-79
2021/03/27 04:10:02;;;;;;;16.87;10.60;;;;;;;0.35;67.42;101659.56;4973471;28;20039;-80
2021/03/27 04:12:37;;;;;;;14.20;9.20;;;;;;;0.50;67.04;101655.09;4973912;28;20071;-79
2021/03/27 04:15:09;;;;;;;14.93;9.63;;;;;;;0.61;66.59;101671.34;4957383;28;20097;-80
2021/03/27 04:17:52;;;;;;;16.33;10.17;;;;;;;0.76;66.44;101683.00;4973559;28;20174;-80
2021/03/27 04:20:25;;;;;;;20.13;11.83;;;;;;;0.72;66.21;101657.13;5030815;28;20044;-80
2021/03/27 04:23:12;;;;;;;14.73;9.73;;;;;;;0.71;66.08;101646.06;5037131;28;20029;-80
2021/03/27 04:26:17;;;;;;;17.77;10.67;;;;;;;0.90;65.79;101697.03;5054395;28;20032;-80
2021/03/27 04:29:08;;;;;;;26.93;15.57;;;;;;;0.87;66.18;101699.25;5052934;28;20025;-80
2021/03/27 04:31:38;;;;;;;19.27;11.90;;;;;;;0.88;66.69;101692.53;5052931;28;20067;-80
2021/03/27 04:34:03;;;;;;;;;;;;;;;0.90;66.43;101701.22;5053450;28;20021;-80
2021/03/27 04:36:54;;;;;;;19.83;12.07;;;;;;;0.94;66.66;101698.22;5054102;28;19912;-80
2021/03/27 04:39:39;;;;;;;16.80;9.27;;;;;;;0.77;66.76;101692.41;5053070;28;20035;-80
2021/03/27 04:42:19;;;;;;;17.90;9.33;;;;;;;0.57;66.45;101689.59;5052875;28;20025;-80
2021/03/27 04:44:52;;;;;;;14.90;8.50;;;;;;;0.50;67.07;101704.97;5053079;28;20467;-80
2021/03/27 04:47:24;;;;;;;18.23;10.00;;;;;;;0.64;66.65;101712.31;5052591;28;20037;-80
2021/03/27 04:50:03;;;;;;;18.17;9.77;;;;;;;0.71;66.58;101716.34;5052870;28;20033;-80
2021/03/27 04:52:38;;;;;;;15.80;9.30;;;;;;;0.74;66.28;101716.66;5052832;28;20122;-80
2021/03/27 04:55:25;;;;;;;19.47;12.30;;;;;;;0.74;66.77;101720.06;5052693;28;20617;-79
2021/03/27 04:58:07;;;;;;;22.10;14.13;;;;;;;0.75;67.11;101726.06;5052418;28;20029;-79
2021/03/27 05:01:02;;;;;;;21.30;12.90;;;;;;;0.75;67.24;101716.78;5053568;28;20029;-79
2021/03/27 05:03:35;;;;;;;15.60;10.00;;;;;;;0.70;67.05;101728.16;5053683;28;20029;-79
2021/03/27 05:06:05;;;;;;;16.17;9.77;;;;;;;0.61;67.54;101712.00;5053200;28;20052;-79
2021/03/27 05:09:00;;;;;;;15.25;9.48;;;;;;;0.74;67.49;101727.69;5052409;28;20040;-79
2021/03/27 05:12:00;;;;;;;16.50;9.27;;;;;;;0.77;67.89;101739.81;5053381;28;20056;-79
2021/03/27 05:14:53;;;;;;;16.83;9.63;;;;;;;0.54;68.55;101737.59;4994810;28;20500;-79
2021/03/27 05:17:39;;;;;;;16.10;8.83;;;;;;;0.51;68.94;101738.16;5011045;28;20121;-78
2021/03/27 05:20:23;;;;;;;18.13;10.77;;;;;;;0.61;69.82;101738.31;4953116;29;20122;-80
2021/03/27 05:23:28;;;;;;;15.27;10.50;;;;;;;0.70;69.57;101740.88;4953039;29;20152;-79
2021/03/27 05:26:08;;;;;;;16.80;9.57;;;;;;;0.86;69.00;101744.88;4953378;29;20050;-80
2021/03/27 05:28:40;;;;;;;21.80;13.63;;;;;;;0.98;69.12;101745.19;4953180;29;20125;-80
2021/03/27 05:31:17;;;;;;;21.23;14.47;;;;;;;1.00;68.78;101731.84;4952849;29;20039;-80
2021/03/27 05:34:14;;;;;;;19.43;12.53;;;;;;;1.12;68.00;101734.66;4952833;29;20122;-80
2021/03/27 05:36:39;;;;;;;21.97;13.67;;;;;;;1.25;67.87;101752.88;4952716;29;20094;-80
2021/03/27 05:39:14;;;;;;;20.10;13.13;;;;;;;1.29;67.46;101743.91;4952825;29;20034;-79
2021/03/27 05:41:42;;;;;;;20.90;13.07;;;;;;;1.40;67.84;101756.00;4952641;29;20035;-81
2021/03/27 05:44:45;;;;;;;18.33;12.17;;;;;;;1.41;67.87;101759.44;4952619;29;20043;-81
2021/03/27 05:47:52;;;;;;;18.00;11.90;;;;;;;1.15;67.98;101706.06;4952901;29;20027;-80
2021/03/27 05:50:43;;;;;;;21.13;12.87;;;;;;;1.32;68.54;101731.50;4865068;29;20048;-80
2021/03/27 05:53:27;;;;;;;20.63;13.73;;;;;;;1.58;68.23;101761.00;4858236;29;20060;-81
2021/03/27 05:56:30;;;;;;;21.07;13.50;;;;;;;1.64;68.53;101761.59;4857874;29;20041;-80
2021/03/27 05:59:03;;;;;;;18.50;12.77;;;;;;;1.65;68.67;101729.41;4952466;29;20046;-81
2021/03/27 06:01:31;;;;;;;18.07;12.27;;;;;;;1.91;68.33;101754.75;4936136;29;20047;-82
2021/03/27 06:04:12;;;;;;;20.93;13.77;;;;;;;2.02;68.52;101756.63;4932717;29;20052;-81
2021/03/27 06:07:02;;;;;;;20.87;12.73;;;;;;;1.90;68.55;101712.19;4932929;29;20031;-81
2021/03/27 06:09:48;;;;;;;20.33;12.97;;;;;;;2.18;68.14;101750.38;4932782;29;20047;-81
2021/03/27 06:12:41;;;;;;;20.03;12.03;;;;;;;2.22;68.59;101760.09;4932927;29;20487;-81
2021/03/27 06:15:33;;;;;;;19.33;12.93;;;;;;;2.38;68.52;101750.53;4932582;29;20047;-82
2021/03/27 06:18:10;;;;;;;24.27;15.53;;;;;;;2.58;68.55;101754.00;4932756;29;20046;-79
2021/03/27 06:21:30;;;;;;;21.40;14.37;;;;;;;2.83;68.60;101751.06;4965842;28;20036;-78
2021/03/27 06:24:16;;;;;;;19.80;13.15;;;;;;;3.16;67.25;101750.59;4990453;28;20036;-79
2021/03/27 06:27:02;;;;;;;19.93;13.57;;;;;;;3.34;66.89;101753.88;4990709;28;20473;-78
2021/03/27 06:30:04;;;;;;;17.80;12.50;;;;;;;3.48;65.68;101754.16;4990411;28;20182;-78
2021/03/27 06:32:51;;;;;;;18.27;11.50;;;;;;;3.48;66.14;101747.38;4990242;28;20038;-78
2021/03/27 06:35:19;;;;;;;22.70;13.47;;;;;;;3.37;66.76;101697.06;5002591;28;20042;-79
2021/03/27 06:38:02;;;;;;;18.20;12.97;;;;;;;3.96;65.66;101758.19;4993298;28;20049;-78
2021/03/27 06:40:28;;;;;;;19.53;13.80;;;;;;;4.01;65.22;101745.06;5010040;28;20428;-78
2021/03/27 06:43:20;;;;;;;21.73;13.33;;;;;;;4.13;64.76;101754.53;4993317;28;20034;-83
2021/03/27 06:46:00;;;;;;;18.93;12.83;;;;;;;4.27;63.89;101743.75;4993176;28;20228;-81
2021/03/27 06:48:37;;;;;;;;;;;;;;;4.29;63.88;101761.81;5010325;28;20053;-81
2021/03/27 06:51:31;;;;;;;19.47;13.90;;;;;;;4.52;63.17;101763.69;4993177;28;19906;-82
2021/03/27 06:54:18;;;;;;;19.50;13.00;;;;;;;4.73;62.51;101772.22;4993354;28;20416;-82
2021/03/27 06:57:06;;;;;;;23.83;12.55;;;;;;;4.87;62.84;101755.44;4993472;28;20092;-86
2021/03/27 06:59:43;;;;;;;23.38;15.95;;;;;;;5.19;62.13;101762.25;5050543;28;20115;-82
2021/03/27 07:02:35;;;;;;;21.77;14.15;;;;;;;5.24;61.81;101763.50;5046593;28;20407;-82
2021/03/27 07:05:34;;;;;;;17.85;12.10;;;;;;;5.41;62.13;101771.59;5008809;28;20136;-81
2021/03/27 07:08:08;;;;;;;20.05;13.02;;;;;;;5.69;61.47;101776.34;5008623;28;20041;-86
2021/03/27 07:11:04;;;;;;;18.42;12.18;;;;;;;5.83;61.16;101761.28;4984035;28;20029;-88
2021/03/27 07:14:00;;;;;;;27.50;19.35;;;;;;;5.98;61.08;101758.06;4990437;28;20026;-87
2021/03/27 07:16:38;;;;;;;18.35;12.93;;;;;;;6.21;60.56;101758.97;5007866;28;20052;-87
2021/03/27 07:19:41;;;;;;;21.33;13.18;;;;;;;6.44;59.59;101763.25;5007460;28;20435;-87
2021/03/27 07:22:28;;;;;;;18.33;11.95;;;;;;;6.71;59.04;101761.84;4991319;28;20088;-86
2021/03/27 07:25:12;;;;;;;18.60;12.90;;;;;;;6.85;58.75;101762.84;5008528;28;20558;-87
2021/03/27 07:28:03;;;;;;;16.05;11.65;;;;;;;6.99;59.16;101761.28;4988168;28;20028;-87
2021/03/27 07:30:50;;;;;;;17.40;12.20;;;;;;;7.04;57.96;101764.16;4992570;28;20487;-87
2021/03/27 07:33:33;;;;;;;18.30;12.73;;;;;;;7.19;57.64;101767.84;4992447;28;20042;-87
2021/03/27 07:36:41;;;;;;;18.77;12.15;;;;;;;6.89;58.41;101753.69;4992565;28;20547;-85
2021/03/27 07:39:26;;;;;;;17.52;12.07;;;;;;;7.34;57.56;101759.44;4973316;28;20028;-86
2021/03/27 07:42:39;;;;;;;17.10;12.48;;;;;;;7.55;56.87;101734.34;5009193;28;20045;-88
2021/03/27 07:45:19;;;;;;;20.33;11.93;;;;;;;7.61;55.93;101689.44;4990257;28;20041;-87
2021/03/27 07:48:44;;;;;;;17.17;12.20;;;;;;;7.99;56.47;101739.09;4980178;28;20030;-88
2021/03/27 07:51:28;;;;;;;17.60;11.65;;;;;;;8.12;54.96;101727.06;4939310;29;20039;-87
2021/03/27 07:54:05;;;;;;;20.48;12.65;;;;;;;8.24;56.72;101761.34;4934382;29;20058;-86
2021/03/27 07:56:39;;;;;;;17.60;11.75;;;;;;;8.58;54.02;101748.16;4935176;29;20051;-88
2021/03/27 07:59:23;;;;;;;21.17;14.20;;;;;;;8.81;53.41;101748.75;4934630;29;20525;-86
2021/03/27 08:02:17;;;;;;;17.83;11.07;;;;;;;8.93;51.35;101751.25;4930906;29;20046;-86
2021/03/27 08:05:01;;;;;;;18.92;10.43;;;;;;;9.00;49.55;101749.16;4915662;29;20060;-90
2021/03/27 08:08:02;;;;;;;15.35;9.93;;;;;;;8.23;48.29;101575.19;4915509;29;20118;-87
2021/03/27 08:11:06;;;;;;;11.70;8.05;;;;;;;9.25;46.71;101740.41;4856371;29;20427;-87
2021/03/27 08:13:50;;;;;;;12.77;8.82;;;;;;;9.23;46.67;101753.22;4837997;29;20417;-88
2021/03/27 08:16:18;;;;;;;13.15;9.23;;;;;;;9.38;46.40;101742.97;4832718;29;20046;-87
2021/03/27 08:18:58;;;;;;;14.50;9.32;;;;;;;9.55;46.79;101746.56;4848812;29;20105;-84
2021/03/27 08:21:49;;;;;;;14.63;9.38;;;;;;;9.89;46.29;101745.16;4875136;29;20430;-91
2021/03/27 08:24:29;;;;;;;14.25;9.77;;;;;;;9.91;46.71;101745.28;4898123;29;20028;-83
2021/03/27 08:27:16;;;;;;;13.07;9.15;;;;;;;9.80;44.97;101742.91;4900369;29;20032;-90
2021/03/27 08:29:42;;;;;;;13.68;10.05;;;;;;;9.87;47.40;101744.19;4899424;29;20035;-89
2021/03/27 08:32:33;;;;;;;14.75;9.57;;;;;;;10.07;45.74;101742.81;4919932;29;20032;-91
2021/03/27 08:35:49;;;;;;;14.85;9.18;;;;;;;9.50;44.82;101670.63;4909176;29;20040;-89
2021/03/27 08:38:14;;;;;;;11.70;8.40;;;;;;;10.07;45.23;101745.38;4862835;29;20082;-89
2021/03/27 08:41:16;;;;;;;15.45;9.77;;;;;;;9.74;47.93;101695.25;4862709;29;20466;-89
2021/03/27 08:43:59;;;;;;;13.25;9.25;;;;;;;9.73;46.01;101678.88;4862864;29;20045;-87
2021/03/27 08:46:46;;;;;;;13.98;9.43;;;;;;;10.30;44.60;101712.28;4863260;29;20096;-89
2021/03/27 08:49:37;;;;;;;16.65;10.90;;;;;;;10.58;44.76;101734.56;4900161;29;20043;-87
2021/03/27 08:52:30;;;;;;;16.13;10.18;;;;;;;10.68;43.61;101736.88;4915687;29;20040;-89
2021/03/27 08:55:17;;;;;;;16.48;8.80;;;;;;;10.66;43.05;101700.63;4900100;29;20126;-89
2021/03/27 08:58:12;;;;;;;18.80;10.27;;;;;;;11.16;43.92;101724.00;4915813;29;20040;-89
2021/03/27 09:01:15;;;;;;;12.23;8.75;;;;;;;11.22;43.24;101723.47;4899646;29;20534;-90
2021/03/27 09:04:13;;;;;;;19.13;9.52;;;;;;;11.55;41.75;101726.09;4912573;29;20079;-87
2021/03/27 09:06:53;;;;;;;15.20;9.63;;;;;;;11.79;39.61;101722.22;4915131;29;20054;-83
2021/03/27 09:09:31;;;;;;;15.35;10.13;;;;;;;11.43;41.20;101727.22;4915066;29;20036;-86
2021/03/27 09:12:14;;;;;;;19.30;9.77;;;;;;;11.59;39.74;101684.03;4899462;29;20431;-88
2021/03/27 09:14:51;;;;;;;14.50;8.65;;;;;;;11.75;42.89;101712.50;4915507;29;20051;-89
2021/03/27 09:17:32;;;;;;;16.23;12.25;;;;;;;11.62;40.53;101668.69;4915360;29;20044;-90
2021/03/27 09:20:33;;;;;;;13.60;9.18;;;;;;;12.01;40.33;101705.22;4899418;29;20043;-85
2021/03/27 09:23:26;;;;;;;14.50;9.60;;;;;;;12.18;40.56;101703.50;4915206;29;20131;-87
2021/03/27 09:26:41;;;;;;;12.45;8.73;;;;;;;11.97;38.81;101691.25;4915224;29;20513;-87
2021/03/27 09:29:44;;;;;;;14.35;9.77;;;;;;;12.19;37.44;101692.31;4942292;28;20039;-87
2021/03/27 09:32:47;;;;;;;12.00;8.45;;;;;;;12.45;37.92;101683.25;4972245;28;20115;-89
2021/03/27 09:35:34;;;;;;;21.38;16.75;;;;;;;12.49;37.36;101683.41;4956304;28;20061;-86
2021/03/27 09:38:27;;;;;;;32.35;20.98;;;;;;;12.66;35.31;101677.34;4956246;28;20031;-85
2021/03/27 09:41:07;;;;;;;38.42;25.88;;;;;;;12.58;33.61;101652.75;4955972;28;20493;-86
2021/03/27 09:43:39;;;;;;;17.10;11.07;;;;;;;12.44;36.94;101642.63;5032313;28;20403;-89
2021/03/27 09:46:37;;;;;;;13.23;7.78;;;;;;;12.55;34.78;101675.94;5031779;28;20468;-85
2021/03/27 09:49:37;;;;;;;13.00;8.77;;;;;;;12.73;37.95;101668.16;4975381;28;20389;-85
2021/03/27 09:52:40;;;;;;;11.00;7.43;;;;;;;12.95;34.02;101657.09;4975290;28;20027;-85
2021/03/27 09:55:29;;;;;;;11.90;7.97;;;;;;;13.03;36.83;101660.91;4991452;28;20117;-84
2021/03/27 09:58:16;;;;;;;10.20;7.30;;;;;;;13.19;34.51;101651.25;4991484;28;20556;-84
2021/03/27 10:00:47;;;;;;;12.05;7.45;;;;;;;13.41;34.00;101645.38;4991443;28;20034;-85
2021/03/27 10:03:34;;;;;;;11.35;9.30;;;;;;;13.19;34.49;101643.47;4991134;28;20027;-88
2021/03/27 10:06:29;;;;;;;10.27;8.10;;;;;;;13.22;34.76;101648.78;4990590;28;20066;-91
2021/03/27 10:09:02;;;;;;;13.65;7.90;;;;;;;13.59;34.33;101642.66;4991068;28;20034;-86
2021/03/27 10:11:32;;;;;;;10.93;7.82;;;;;;;13.71;33.81;101638.00;4990900;28;20033;-89
2021/03/27 10:14:16;;;;;;;12.38;7.88;;;;;;;13.99;32.73;101631.38;4991249;28;20513;-88
2021/03/27 10:17:05;;;;;;;12.02;7.65;;;;;;;13.46;33.29;101610.13;4990877;28;20037;-88
2021/03/27 10:19:52;;;;;;;10.50;7.37;;;;;;;13.69;32.60;101582.56;4991076;28;20560;-86
2021/03/27 10:22:27;;;;;;;11.75;7.03;;;;;;;14.08;33.36;101611.00;4991026;28;20030;-89
2021/03/27 10:25:17;;;;;;;10.65;7.70;;;;;;;14.08;32.08;101621.38;4991085;28;20119;-85
2021/03/27 10:27:47;;;;;;;;;;;;;;;14.40;31.65;101623.50;5047377;28;20067;-91
2021/03/27 10:30:31;;;;;;;11.57;7.70;;;;;;;14.60;32.81;101618.22;5046163;28;20386;-86
2021/03/27 10:33:21;;;;;;;11.45;7.45;;;;;;;14.67;32.35;101608.16;5050563;28;20483;-86
2021/03/27 10:35:47;;;;;;;;;;;;;;;14.72;33.10;101611.81;5051517;28;20021;-88
2021/03/27 10:38:50;;;;;;;11.02;7.15;;;;;;;14.57;34.38;101612.06;5049343;28;20370;-89
2021/03/27 10:41:40;;;;;;;10.93;7.07;;;;;;;14.79;33.39;101609.44;5059898;28;20037;-85
2021/03/27 10:44:33;;;;;;;10.85;8.18;;;;;;;14.85;33.55;101602.78;5041462;28;20124;-84
2021/03/27 10:47:14;;;;;;;13.60;7.25;;;;;;;14.90;32.17;101597.72;5040740;28;20029;-85
2021/03/27 10:49:59;;;;;;;11.95;7.00;;;;;;;15.09;30.19;101586.31;5041018;28;20112;-85
2021/03/27 10:52:43;;;;;;;16.17;7.90;;;;;;;15.00;30.67;101549.53;5045925;28;20024;-85
2021/03/27 10:55:25;;;;;;;14.75;9.55;;;;;;;15.39;29.75;101595.13;5050350;28;20021;-84
2021/03/27 10:58:18;;;;;;;11.07;8.20;;;;;;;14.96;31.37;101595.34;5051519;28;20033;-84
2021/03/27 11:00:58;;;;;;;16.00;10.48;;;;;;;15.31;31.55;101594.88;5049860;28;20025;-83
2021/03/27 11:03:26;;;;;;;14.43;8.95;;;;;;;15.61;29.76;101595.03;5064455;28;20039;-81
2021/03/27 11:05:55;;;;;;;14.23;8.90;;;;;;;15.69;29.38;101587.53;5052956;28;20060;-82
2021/03/27 11:09:10;;;;;;;12.40;8.48;;;;;;;15.28;29.92;101587.84;5045847;28;20087;-82
2021/03/27 11:11:56;;;;;;;12.73;8.50;;;;;;;15.66;28.58;101583.09;5042962;28;20029;-81
2021/03/27 11:14:46;;;;;;;11.00;8.60;;;;;;;15.48;28.97;101583.34;5037663;28;20079;-82
2021/03/27 11:17:38;;;;;;;11.98;7.88;;;;;;;15.59;28.97;101575.91;5041169;28;20029;-80
2021/03/27 11:20:21;;;;;;;19.63;12.00;;;;;;;15.65;31.33;101572.59;5041452;28;20028;-82
2021/03/27 11:23:27;;;;;;;10.30;6.82;;;;;;;15.73;29.40;101568.56;5050145;28;20037;-82
2021/03/27 11:26:17;;;;;;;12.48;6.85;;;;;;;16.09;28.37;101567.16;5051349;28;20076;-81
2021/03/27 11:28:57;;;;;;;11.05;7.28;;;;;;;16.32;29.03;101555.72;5040149;28;20033;-80
2021/03/27 11:31:33;;;;;;;9.68;7.05;;;;;;;16.31;30.08;101555.66;5049679;28;20033;-81
2021/03/27 11:34:11;;;;;;;11.10;7.10;;;;;;;16.33;27.85;101543.56;5047311;28;20116;-81
2021/03/27 11:36:42;;;;;;;9.70;6.65;;;;;;;16.43;30.36;101531.69;5048556;28;20035;-83
2021/03/27 11:39:43;;;;;;;9.63;6.72;;;;;;;16.58;29.12;101537.34;5046680;28;20026;-83
2021/03/27 11:42:24;;;;;;;10.95;6.60;;;;;;;16.53;28.55;101525.03;4972301;28;20234;-82
2021/03/27 11:45:13;;;;;;;13.38;7.30;;;;;;;16.40;28.90;101547.22;4972395;28;20121;-80
2021/03/27 11:48:01;;;;;;;12.23;8.23;;;;;;;16.58;28.90;101545.19;4971462;28;20034;-87
2021/03/27 11:50:48;;;;;;;9.98;7.40;;;;;;;16.82;28.21;101538.91;4988529;28;20030;-82
2021/03/27 11:53:48;;;;;;;8.35;5.88;;;;;;;16.74;26.03;101535.22;4973351;28;20516;-81
2021/03/27 11:56:19;;;;;;;10.05;7.20;;;;;;;16.62;27.83;101547.06;4992917;28;20023;-79
2021/03/27 12:02:30;;;;;;;11.25;7.30;;;;;;;16.89;29.57;101527.81;4989716;28;20084;-84
2021/03/27 12:05:15;;;;;;;11.75;7.13;;;;;;;17.03;30.09;101527.34;4976642;28;20061;-81
2021/03/27 12:08:02;;;;;;;14.63;6.18;;;;;;;17.08;28.87;101490.09;4983011;28;20394;-80
2021/03/27 12:10:36;;;;;;;11.75;5.68;;;;;;;16.61;27.94;101518.31;4983242;28;20035;-82
2021/03/27 12:13:19;;;;;;;8.93;5.70;;;;;;;16.59;27.47;101473.94;4968081;28;20034;-85
2021/03/27 12:15:54;;;;;;;12.05;5.50;;;;;;;16.83;25.87;101506.78;4968096;28;20038;-82
2021/03/27 12:18:47;;;;;;;7.78;5.50;;;;;;;16.87;27.48;101489.50;4983743;28;20029;-81
2021/03/27 12:21:28;;;;;;;9.25;5.65;;;;;;;16.63;28.45;101503.59;5029162;28;20064;-82
2021/03/27 12:24:16;;;;;;;8.23;5.72;;;;;;;16.50;28.40;101481.53;5015937;28;20067;-81
2021/03/27 12:27:08;;;;;;;9.70;5.50;;;;;;;16.25;27.27;101505.97;5032322;28;20034;-83
2021/03/27 12:29:58;;;;;;;10.57;7.18;;;;;;;16.72;27.99;101510.81;5012125;28;20420;-82
2021/03/27 12:32:46;;;;;;;8.18;6.32;;;;;;;17.06;26.51;101507.44;5012337;28;20498;-80
2021/03/27 12:35:25;;;;;;;9.25;5.38;;;;;;;17.12;26.94;101472.78;4979392;28;20483;-81
2021/03/27 12:38:05;;;;;;;8.80;5.20;;;;;;;17.06;26.21;101503.94;4995880;28;20033;-82
2021/03/27 12:40:40;;;;;;;8.50;5.47;;;;;;;17.03;25.48;101490.81;5014241;28;20073;-80